Time,TemperatureF,DewpointF,PressureIn,WindDirection,WindDirectionDegrees,WindSpeedMPH,WindSpeedGustMPH,Humidity,HourlyPrecipIn,Conditions,Clouds,dailyrainin,SoftwareType,DateUTC
2013-09-13 00:06:00,63.6,58.0,29.84,SE,135,0.0,5.0,83,0.00,,,0.00,weatherlink.com 1.10,2013-09-13 07:06:00,
2013-09-13 00:21:00,63.5,59.0,29.84,SE,127,0.0,5.0,84,0.00,,,0.00,weatherlink.com 1.10,2013-09-13 07:21:00,
2013-09-13 00:36:00,63.1,59.0,29.85,SE,132,3.0,3.0,85,0.00,,,0.00,weatherlink.com 1.10,2013-09-13 07:36:00,
2013-09-13 00:51:00,63.1,59.0,29.84,ESE,123,0.0,3.0,86,0.00,,,0.00,weatherlink.com 1.10,2013-09-13 07:51:00,
2013-09-13 01:06:00,63.0,59.0,29.84,ESE,117,0.0,2.0,86,0.00,,,0.00,weatherlink.com 1.10,2013-09-13 08:06:00,
2013-09-13 01:21:00,62.9,59.0,29.85,ESE,119,1.0,3.0,87,0.00,,,0.00,weatherlink.com 1.10,2013-09-13 08:21:00,
2013-09-13 01:36:00,63.0,59.0,29.84,ESE,118,0.0,4.0,86,0.00,,,0.00,weatherlink.com 1.10,2013-09-13 08:36:00,
2013-09-13 01:51:00,62.9,59.0,29.84,SE,129,2.0,4.0,86,0.00,,,0.00,weatherlink.com 1.10,2013-09-13 08:51:00,
2013-09-13 02:06:00,62.7,59.0,29.84,SSE,159,3.0,5.0,86,0.00,,,0.00,weatherlink.com 1.10,2013-09-13 09:06:00,
2013-09-13 02:21:00,62.5,58.0,29.84,South,189,5.0,6.0,86,0.00,,,0.00,weatherlink.com 1.10,2013-09-13 09:21:00,
2013-09-13 02:36:00,61.9,58.0,29.84,SW,223,2.0,7.0,86,0.00,,,0.00,weatherlink.com 1.10,2013-09-13 09:36:00,
2013-09-13 02:51:00,61.8,58.0,29.84,SSW,201,7.0,9.0,87,0.00,,,0.00,weatherlink.com 1.10,2013-09-13 09:51:00,
2013-09-13 03:06:00,61.9,58.0,29.84,South,170,6.0,10.0,86,0.00,,,0.00,weatherlink.com 1.10,2013-09-13 10:06:00,
2013-09-13 03:21:00,61.8,58.0,29.84,South,186,5.0,10.0,86,0.00,,,0.00,weatherlink.com 1.10,2013-09-13 10:21:00,
2013-09-13 03:36:00,61.6,58.0,29.84,SW,222,3.0,8.0,87,0.00,,,0.00,weatherlink.com 1.10,2013-09-13 10:36:00,
2013-09-13 03:52:00,61.4,58.0,29.84,SSW,195,6.0,10.0,88,0.00,,,0.00,weatherlink.com 1.10,2013-09-13 10:52:00,
2013-09-13 04:07:00,61.1,58.0,29.84,WSW,242,5.0,11.0,89,0.00,,,0.00,weatherlink.com 1.10,2013-09-13 11:07:00,
2013-09-13 04:22:00,60.8,58.0,29.84,SSW,200,2.0,9.0,89,0.00,,,0.00,weatherlink.com 1.10,2013-09-13 11:22:00,
2013-09-13 04:37:00,60.5,58.0,29.83,SSW,213,6.0,10.0,90,0.00,,,0.00,weatherlink.com 1.10,2013-09-13 11:37:00,
2013-09-13 04:52:00,60.3,57.0,29.83,SW,235,3.0,8.0,90,0.00,,,0.00,weatherlink.com 1.10,2013-09-13 11:52:00,
2013-09-13 05:07:00,60.0,57.0,29.84,SSW,202,4.0,7.0,91,0.00,,,0.00,weatherlink.com 1.10,2013-09-13 12:07:00,
2013-09-13 05:22:00,59.8,57.0,29.84,SW,219,3.0,6.0,91,0.00,,,0.00,weatherlink.com 1.10,2013-09-13 12:22:00,
2013-09-13 05:37:00,59.7,57.0,29.84,SSW,194,2.0,8.0,91,0.00,,,0.00,weatherlink.com 1.10,2013-09-13 12:37:00,
2013-09-13 05:52:00,59.7,57.0,29.84,South,178,1.0,6.0,91,0.00,,,0.00,weatherlink.com 1.10,2013-09-13 12:52:00,
2013-09-13 06:07:00,59.6,57.0,29.84,SSW,194,1.0,4.0,92,0.00,,,0.00,weatherlink.com 1.10,2013-09-13 13:07:00,
2013-09-13 06:22:00,59.4,57.0,29.84,WSW,240,0.0,3.0,91,0.00,,,0.00,weatherlink.com 1.10,2013-09-13 13:22:00,
2013-09-13 06:37:00,59.2,57.0,29.85,SW,222,0.0,5.0,91,0.00,,,0.00,weatherlink.com 1.10,2013-09-13 13:37:00,
2013-09-13 06:52:00,59.1,57.0,29.85,SSW,205,2.0,5.0,91,0.00,,,0.00,weatherlink.com 1.10,2013-09-13 13:52:00,
2013-09-13 07:07:00,59.1,57.0,29.85,SSW,198,0.0,5.0,91,0.00,,,0.00,weatherlink.com 1.10,2013-09-13 14:07:00,
2013-09-13 07:22:00,59.4,57.0,29.86,SSE,166,1.0,6.0,92,0.00,,,0.00,weatherlink.com 1.10,2013-09-13 14:22:00,
2013-09-13 07:37:00,60.4,58.0,29.86,South,180,0.0,3.0,90,0.00,,,0.00,weatherlink.com 1.10,2013-09-13 14:37:00,
2013-09-13 07:52:00,61.3,58.0,29.86,SW,225,1.0,5.0,89,0.00,,,0.00,weatherlink.com 1.10,2013-09-13 14:52:00,
2013-09-13 08:07:00,62.0,58.0,29.86,SSW,201,1.0,7.0,87,0.00,,,0.00,weatherlink.com 1.10,2013-09-13 15:07:00,
2013-09-13 08:22:00,62.6,58.0,29.85,SW,214,5.0,7.0,86,0.00,,,0.00,weatherlink.com 1.10,2013-09-13 15:22:00,
2013-09-13 08:37:00,63.3,58.0,29.86,SW,219,5.0,7.0,84,0.00,,,0.00,weatherlink.com 1.10,2013-09-13 15:37:00,
2013-09-13 08:52:00,64.0,59.0,29.85,SSW,194,4.0,7.0,83,0.00,,,0.00,weatherlink.com 1.10,2013-09-13 15:52:00,
2013-09-13 09:07:00,65.0,59.0,29.86,West,264,6.0,7.0,82,0.00,,,0.00,weatherlink.com 1.10,2013-09-13 16:07:00,
2013-09-13 09:22:00,65.8,60.0,29.86,South,173,1.0,6.0,81,0.00,,,0.00,weatherlink.com 1.10,2013-09-13 16:22:00,
2013-09-13 09:38:00,67.0,60.0,29.86,SSW,205,3.0,6.0,79,0.00,,,0.00,weatherlink.com 1.10,2013-09-13 16:38:00,
2013-09-13 09:53:00,68.1,60.0,29.85,South,189,4.0,7.0,76,0.00,,,0.00,weatherlink.com 1.10,2013-09-13 16:53:00,
2013-09-13 10:08:00,69.2,61.0,29.85,SW,221,4.0,8.0,74,0.00,,,0.00,weatherlink.com 1.10,2013-09-13 17:08:00,
2013-09-13 10:23:00,70.3,62.0,29.85,WSW,242,4.0,6.0,74,0.00,,,0.00,weatherlink.com 1.10,2013-09-13 17:23:00,
2013-09-13 10:38:00,71.2,61.0,29.85,SSW,202,5.0,7.0,71,0.00,,,0.00,weatherlink.com 1.10,2013-09-13 17:38:00,
2013-09-13 10:53:00,72.1,62.0,29.84,SW,216,1.0,7.0,70,0.00,,,0.00,weatherlink.com 1.10,2013-09-13 17:53:00,
2013-09-13 11:08:00,73.7,63.0,29.83,SW,234,3.0,6.0,69,0.00,,,0.00,weatherlink.com 1.10,2013-09-13 18:08:00,
2013-09-13 11:23:00,74.5,62.0,29.83,WSW,257,2.0,10.0,66,0.00,,,0.00,weatherlink.com 1.10,2013-09-13 18:23:00,
2013-09-13 11:38:00,75.9,63.0,29.82,WSW,244,2.0,8.0,65,0.00,,,0.00,weatherlink.com 1.10,2013-09-13 18:38:00,
2013-09-13 11:53:00,76.9,63.0,29.82,WSW,246,2.0,9.0,62,0.00,,,0.00,weatherlink.com 1.10,2013-09-13 18:53:00,
2013-09-13 12:08:00,77.9,63.0,29.81,WSW,238,2.0,-999.0,61,-99.99,,,0.00,weatherlink.com 1.10,2013-09-13 19:08:00,
2013-09-13 12:23:00,79.3,64.0,29.80,SW,223,5.0,9.0,60,0.00,,,0.00,weatherlink.com 1.10,2013-09-13 19:23:00,
2013-09-13 12:38:00,80.3,63.0,29.80,SW,234,2.0,7.0,56,0.00,,,0.00,weatherlink.com 1.10,2013-09-13 19:38:00,
2013-09-13 12:53:00,81.2,64.0,29.79,SSW,195,3.0,7.0,56,0.00,,,0.00,weatherlink.com 1.10,2013-09-13 19:53:00,
2013-09-13 13:09:00,82.3,64.0,29.79,SSW,200,3.0,8.0,54,0.00,,,0.00,weatherlink.com 1.10,2013-09-13 20:09:00,
2013-09-13 13:24:00,83.1,63.0,29.78,WSW,246,4.0,8.0,51,0.00,,,0.00,weatherlink.com 1.10,2013-09-13 20:24:00,
2013-09-13 13:39:00,84.1,64.0,29.77,West,267,4.0,7.0,51,0.00,,,0.00,weatherlink.com 1.10,2013-09-13 20:39:00,
2013-09-13 13:54:00,85.0,64.0,29.76,WSW,248,3.0,8.0,50,0.00,,,0.00,weatherlink.com 1.10,2013-09-13 20:54:00,
2013-09-13 14:09:00,86.2,63.0,29.75,West,275,0.0,7.0,46,0.00,,,0.00,weatherlink.com 1.10,2013-09-13 21:09:00,
2013-09-13 14:24:00,86.9,64.0,29.75,SW,226,4.0,7.0,46,0.00,,,0.00,weatherlink.com 1.10,2013-09-13 21:24:00,
2013-09-13 14:39:00,87.3,64.0,29.74,South,185,3.0,8.0,46,0.00,,,0.00,weatherlink.com 1.10,2013-09-13 21:39:00,
2013-09-13 14:54:00,88.0,64.0,29.73,West,269,4.0,8.0,45,0.00,,,0.00,weatherlink.com 1.10,2013-09-13 21:54:00,
2013-09-13 15:09:00,88.4,62.0,29.72,SSW,192,3.0,7.0,42,0.00,,,0.00,weatherlink.com 1.10,2013-09-13 22:09:00,
2013-09-13 15:24:00,89.0,62.0,29.71,SSW,208,5.0,7.0,41,0.00,,,0.00,weatherlink.com 1.10,2013-09-13 22:24:00,
2013-09-13 15:39:00,89.4,62.0,29.71,SW,229,6.0,8.0,40,0.00,,,0.00,weatherlink.com 1.10,2013-09-13 22:39:00,
2013-09-13 15:54:00,89.5,62.0,29.70,South,180,3.0,8.0,40,0.00,,,0.00,weatherlink.com 1.10,2013-09-13 22:54:00,
2013-09-13 16:09:00,89.9,61.0,29.70,SW,216,6.0,8.0,38,0.00,,,0.00,weatherlink.com 1.10,2013-09-13 23:09:00,
2013-09-13 16:24:00,89.7,61.0,29.69,SSW,200,7.0,9.0,38,0.00,,,0.00,weatherlink.com 1.10,2013-09-13 23:24:00,
2013-09-13 16:39:00,90.0,62.0,29.69,SSW,194,3.0,8.0,39,0.00,,,0.00,weatherlink.com 1.10,2013-09-13 23:39:00,
2013-09-13 16:54:00,89.1,63.0,29.69,WSW,252,8.0,9.0,42,0.00,,,0.00,weatherlink.com 1.10,2013-09-13 23:54:00,
2013-09-13 17:09:00,87.5,60.0,29.69,WSW,238,6.0,11.0,40,0.00,,,0.00,weatherlink.com 1.10,2013-09-14 00:09:00,
2013-09-13 17:24:00,86.5,61.0,29.69,South,186,4.0,10.0,43,0.00,,,0.00,weatherlink.com 1.10,2013-09-14 00:24:00,
2013-09-13 17:39:00,85.1,59.0,29.69,SSW,207,7.0,11.0,42,0.00,,,0.00,weatherlink.com 1.10,2013-09-14 00:39:00,
2013-09-13 17:54:00,83.6,59.0,29.68,SSW,194,2.0,12.0,44,0.00,,,0.00,weatherlink.com 1.10,2013-09-14 00:54:00,
2013-09-13 18:09:00,82.3,58.0,29.68,SSW,196,6.0,9.0,44,0.00,,,0.00,weatherlink.com 1.10,2013-09-14 01:09:00,
2013-09-13 18:25:00,80.6,56.0,29.68,WSW,248,4.0,12.0,43,0.00,,,0.00,weatherlink.com 1.10,2013-09-14 01:25:00,
2013-09-13 18:40:00,79.3,57.0,29.68,SW,219,3.0,7.0,47,0.00,,,0.00,weatherlink.com 1.10,2013-09-14 01:40:00,
2013-09-13 18:55:00,77.6,56.0,29.68,SSW,202,4.0,13.0,48,0.00,,,0.00,weatherlink.com 1.10,2013-09-14 01:55:00,
2013-09-13 19:11:00,75.5,56.0,29.68,SW,226,4.0,11.0,51,0.00,,,0.00,weatherlink.com 1.10,2013-09-14 02:11:00,
2013-09-13 19:25:00,74.2,56.0,29.68,South,191,4.0,6.0,54,0.00,,,0.00,weatherlink.com 1.10,2013-09-14 02:25:00,
2013-09-13 19:40:00,73.6,57.0,29.68,SSW,212,2.0,6.0,56,0.00,,,0.00,weatherlink.com 1.10,2013-09-14 02:40:00,
2013-09-13 19:55:00,72.4,57.0,29.68,South,190,4.0,9.0,58,0.00,,,0.00,weatherlink.com 1.10,2013-09-14 02:55:00,
2013-09-13 20:10:00,71.3,56.0,29.68,SW,214,6.0,9.0,59,0.00,,,0.00,weatherlink.com 1.10,2013-09-14 03:10:00,
2013-09-13 20:25:00,70.5,56.0,29.68,SW,226,4.0,10.0,60,0.00,,,0.00,weatherlink.com 1.10,2013-09-14 03:25:00,
2013-09-13 20:40:00,69.7,56.0,29.69,SSE,159,7.0,10.0,61,0.00,,,0.00,weatherlink.com 1.10,2013-09-14 03:40:00,
2013-09-13 20:55:00,69.1,55.0,29.69,SSW,205,5.0,9.0,62,0.00,,,0.00,weatherlink.com 1.10,2013-09-14 03:55:00,
2013-09-13 21:10:00,68.5,56.0,29.69,SW,232,2.0,9.0,65,0.00,,,0.00,weatherlink.com 1.10,2013-09-14 04:10:00,
2013-09-13 21:25:00,68.0,56.0,29.69,SW,218,5.0,8.0,66,0.00,,,0.00,weatherlink.com 1.10,2013-09-14 04:25:00,
2013-09-13 21:40:00,67.6,56.0,29.70,SW,223,3.0,9.0,67,0.00,,,0.00,weatherlink.com 1.10,2013-09-14 04:40:00,
2013-09-13 21:55:00,67.1,56.0,29.69,SSW,202,6.0,8.0,68,0.00,,,0.00,weatherlink.com 1.10,2013-09-14 04:55:00,
2013-09-13 22:10:00,66.7,56.0,29.70,SSW,201,0.0,8.0,68,0.00,,,0.00,weatherlink.com 1.10,2013-09-14 05:10:00,
2013-09-13 22:25:00,66.4,56.0,29.70,South,188,3.0,8.0,69,0.00,,,0.00,weatherlink.com 1.10,2013-09-14 05:25:00,
2013-09-13 22:40:00,66.2,56.0,29.70,South,180,1.0,9.0,69,0.00,,,0.00,weatherlink.com 1.10,2013-09-14 05:40:00,
2013-09-13 22:55:00,66.1,56.0,29.71,South,187,0.0,6.0,69,0.00,,,0.00,weatherlink.com 1.10,2013-09-14 05:55:00,
2013-09-13 23:10:00,65.6,56.0,29.71,South,182,2.0,6.0,70,0.00,,,0.00,weatherlink.com 1.10,2013-09-14 06:10:00,
2013-09-13 23:25:00,65.2,56.0,29.71,South,180,4.0,5.0,71,0.00,,,0.00,weatherlink.com 1.10,2013-09-14 06:25:00,
2013-09-13 23:40:00,64.8,56.0,29.70,South,175,2.0,6.0,73,0.00,,,0.00,weatherlink.com 1.10,2013-09-14 06:40:00,
2013-09-13 23:55:00,64.5,56.0,29.71,South,173,0.0,6.0,74,0.00,,,0.00,weatherlink.com 1.10,2013-09-14 06:55:00,